Terminal Aerodrome Forecast
Issued by NWS Duluth, MN

Home | Current Version | Previous Version | Text Only | Print | Product List | Glossary On
Versions: 1 2 3 4 5 6 7 8 9 10 11 12 13 14 15 16 17 18 19 20 21 22 23 24 25 26 27 28 29 30 31 32 33 34 35
000
FTUS43 KDLH 220600 AAA
TAFDLH
TAF AMD
KDLH 220640Z 2207/2306 14007KT 1/2SM -DZ FG OVC002
     FM220800 14008KT 3/4SM -SN BR OVC003
      TEMPO 2208/2211 1 1/2SM -RASN OVC005
     FM221500 13008KT 3/4SM -DZSN BR OVC003
     FM221800 10008KT 3/4SM -DZ BR OVC002=

USA.gov is the U.S. government's official web portal to all federal, state and local government web resources and services.